| time (UTC) | temp C | wind direction | speed KPH | gust KPH | rain 1hr cm | rain 24hr cm | rain mn cm | humidity % | barometer mb |
| 20260508010030 | 11 | 279 | 0.0 | 3.2 | 0.00 | 0.00 | 0.00 | 31 | 1009.6 |
| 20260508004531 | 11 | 279 | 0.0 | 9.7 | 0.00 | 0.00 | 0.00 | 29 | 1009.6 |
| 20260508003027 | 12 | 278 | 3.2 | 11.3 | 0.00 | 0.00 | 0.00 | 28 | 1009.6 |
| 20260508001526 | 12 | 38 | 1.6 | 8.0 | 0.00 | 0.00 | 0.00 | 29 | 1009.7 |
| 20260508000024 | 12 | 314 | 3.2 | 16.1 | 0.00 | 0.00 | 0.00 | 28 | 1009.8 |
| 20260507234538 | 12 | 327 | 4.8 | 14.5 | 0.00 | 0.00 | 0.00 | 26 | 1009.9 |
| 20260507233027 | 12 | 245 | 1.6 | 17.7 | 0.00 | 0.00 | 0.00 | 27 | 1009.9 |
| 20260507231522 | 12 | 24 | 3.2 | 19.3 | 0.00 | 0.00 | 0.00 | 27 | 1010.0 |
| 20260507230020 | 13 | 268 | 8.0 | 17.7 | 0.00 | 0.00 | 0.00 | 26 | 1010.1 |
| 20260507224520 | 13 | 329 | 3.2 | 14.5 | 0.00 | 0.00 | 0.00 | 27 | 1010.1 |
| 20260507223019 | 14 | 342 | 11.3 | 22.5 | 0.00 | 0.00 | 0.00 | 26 | 1010.2 |
| 20260507221528 | 13 | 315 | 1.6 | 19.3 | 0.00 | 0.00 | 0.00 | 27 | 1010.2 |
| 20260507220017 | 13 | 294 | 4.8 | 20.9 | 0.00 | 0.00 | 0.00 | 27 | 1010.2 |
| 20260507214516 | 14 | 324 | 6.4 | 17.7 | 0.00 | 0.00 | 0.00 | 26 | 1010.2 |
| 20260507213023 | 14 | 340 | 8.0 | 20.9 | 0.00 | 0.00 | 0.00 | 26 | 1010.3 |
| 20260507211516 | 14 | 355 | 12.9 | 29.0 | 0.00 | 0.00 | 0.00 | 25 | 1010.3 |
| 20260507210016 | 14 | 321 | 8.0 | 19.3 | 0.00 | 0.00 | 0.00 | 27 | 1010.5 |
| 20260507204511 | 14 | 355 | 9.7 | 24.1 | 0.00 | 0.00 | 0.00 | 26 | 1010.5 |
| 20260507203009 | 14 | 340 | 11.3 | 25.7 | 0.00 | 0.00 | 0.00 | 27 | 1010.8 |
| 20260507201507 | 14 | 321 | 4.8 | 16.1 | 0.00 | 0.00 | 0.00 | 29 | 1011.0 |
| 20260507200004 | 13 | 348 | 8.0 | 25.7 | 0.00 | 0.00 | 0.00 | 28 | 1011.0 |
| 20260507194507 | 13 | 10 | 6.4 | 17.7 | 0.00 | 0.00 | 0.00 | 29 | 1011.1 |
| 20260507193003 | 13 | 277 | 6.4 | 16.1 | 0.00 | 0.00 | 0.00 | 30 | 1011.2 |
| 20260507191604 | 13 | 341 | 6.4 | 20.9 | 0.00 | 0.00 | 0.00 | 28 | 1011.3 |
| 20260507190107 | 13 | 251 | 1.6 | 14.5 | 0.00 | 0.00 | 0.00 | 29 | 1011.4 |
| 20260507184556 | 13 | 311 | 9.7 | 20.9 | 0.00 | 0.00 | 0.00 | 32 | 1011.4 |
| 20260507183112 | 13 | 17 | 8.0 | 25.7 | 0.00 | 0.00 | 0.00 | 27 | 1011.6 |
| 20260507181557 | 13 | 315 | 9.7 | 22.5 | 0.00 | 0.00 | 0.00 | 30 | 1011.6 |
| 20260507180052 | 12 | 347 | 14.5 | 29.0 | 0.00 | 0.00 | 0.00 | 31 | 1011.7 |
| 20260507174559 | 13 | 67 | 3.2 | 17.7 | 0.00 | 0.00 | 0.00 | 32 | 1011.9 |
| 20260507173049 | 12 | 273 | 11.3 | 27.4 | 0.00 | 0.00 | 0.00 | 31 | 1012.1 |
| 20260507171543 | 12 | 11 | 8.0 | 17.7 | 0.00 | 0.00 | 0.00 | 28 | 1012.3 |
| 20260507170043 | 12 | 5 | 6.4 | 22.5 | 0.00 | 0.00 | 0.00 | 30 | 1012.3 |
| 20260507164548 | 12 | 350 | 1.6 | 14.5 | 0.00 | 0.00 | 0.00 | 32 | 1012.4 |
| 20260507163033 | 11 | 293 | 4.8 | 16.1 | 0.00 | 0.00 | 0.00 | 32 | 1012.5 |
| 20260507161539 | 11 | 36 | 6.4 | 19.3 | 0.00 | 0.00 | 0.00 | 34 | 1012.7 |
| 20260507160028 | 10 | 11 | 6.4 | 19.3 | 0.00 | 0.00 | 0.00 | 36 | 1012.9 |
| 20260507154524 | 10 | 312 | 6.4 | 19.3 | 0.00 | 0.00 | 0.00 | 37 | 1012.9 |
| 20260507153022 | 8 | 26 | 3.2 | 12.9 | 0.00 | 0.00 | 0.00 | 40 | 1013.0 |
| 20260507151516 | 8 | 17 | 4.8 | 9.7 | 0.00 | 0.00 | 0.00 | 48 | 1013.0 |
| 20260507150014 | 7 | 328 | 1.6 | 14.5 | 0.00 | 0.00 | 0.00 | 50 | 1013.0 |
| 20260507144507 | 7 | 355 | 3.2 | 12.9 | 0.00 | 0.00 | 0.00 | 52 | 1013.1 |
| 20260507143011 | 6 | 350 | 4.8 | 12.9 | 0.00 | 0.00 | 0.00 | 53 | 1013.3 |
| 20260507141605 | 6 | 355 | 1.6 | 14.5 | 0.00 | 0.00 | 0.00 | 54 | 1013.5 |
| 20260507140057 | 5 | 339 | 3.2 | 12.9 | 0.00 | 0.00 | 0.00 | 57 | 1013.5 |
| 20260507134554 | 5 | 342 | 8.0 | 14.5 | 0.00 | 0.00 | 0.00 | 60 | 1013.6 |
| 20260507133052 | 4 | 360 | 3.2 | 12.9 | 0.00 | 0.00 | 0.00 | 64 | 1013.6 |
| 20260507131548 | 3 | 340 | 3.2 | 8.0 | 0.00 | 0.00 | 0.00 | 65 | 1013.6 |
| 20260507130048 | 3 | 333 | 3.2 | 8.0 | 0.00 | 0.00 | 0.00 | 66 | 1013.7 |
| 20260507124556 | 2 | 355 | 0.0 | 8.0 | 0.00 | 0.00 | 0.00 | 68 | 1013.8 |
| 20260507123045 | 2 | 323 | 0.0 | 8.0 | 0.00 | 0.00 | 0.00 | 69 | 1013.9 |
| 20260507121544 | 1 | 248 | 1.6 | 6.4 | 0.00 | 0.00 | 0.00 | 71 | 1013.8 |
| 20260507120044 | 0 | 228 | 0.0 | 3.2 | 0.00 | 0.00 | 0.00 | 73 | 1013.8 |
| 20260507114602 | 0 | 228 | 0.0 | 3.2 | 0.00 | 0.00 | 0.00 | 74 | 1013.6 |
| 20260507113101 | 0 | 224 | 0.0 | 1.6 | 0.00 | 0.00 | 0.00 | 74 | 1013.6 |
| 20260507111545 | 0 | 224 | 0.0 | 1.6 | 0.00 | 0.00 | 0.00 | 74 | 1013.4 |
| 20260507110040 | 0 | 224 | 0.0 | 0.0 | 0.00 | 0.00 | 0.00 | 73 | 1013.5 |
| 20260507104541 | 0 | 224 | 0.0 | 0.0 | 0.00 | 0.00 | 0.00 | 72 | 1013.4 |
| 20260507103033 | 0 | 224 | 0.0 | 3.2 | 0.00 | 0.00 | 0.00 | 71 | 1013.3 |
| 20260507101531 | 1 | 223 | 0.0 | 0.0 | 0.00 | 0.00 | 0.00 | 70 | 1013.4 |
| 20260507100028 | 1 | 223 | 1.6 | 3.2 | 0.00 | 0.00 | 0.00 | 68 | 1013.5 |
| 20260507094527 | 1 | 223 | 1.6 | 6.4 | 0.00 | 0.00 | 0.00 | 68 | 1013.5 |
| 20260507093030 | 1 | 223 | 1.6 | 4.8 | 0.00 | 0.00 | 0.00 | 68 | 1013.6 |
| 20260507091524 | 1 | 223 | 1.6 | 4.8 | 0.00 | 0.00 | 0.00 | 67 | 1013.6 |
| 20260507090022 | 1 | 223 | 1.6 | 4.8 | 0.00 | 0.00 | 0.00 | 67 | 1013.7 |
| 20260507084519 | 2 | 223 | 1.6 | 4.8 | 0.00 | 0.00 | 0.00 | 66 | 1013.7 |
| 20260507083020 | 2 | 223 | 1.6 | 6.4 | 0.00 | 0.00 | 0.00 | 66 | 1013.9 |
| 20260507081532 | 2 | 229 | 1.6 | 6.4 | 0.00 | 0.00 | 0.00 | 67 | 1013.9 |
| 20260507080017 | 2 | 229 | 3.2 | 4.8 | 0.00 | 0.00 | 0.00 | 66 | 1013.8 |
| 20260507074513 | 2 | 230 | 1.6 | 4.8 | 0.00 | 0.00 | 0.00 | 66 | 1013.9 |
| 20260507073013 | 2 | 230 | 1.6 | 4.8 | 0.00 | 0.00 | 0.00 | 64 | 1014.0 |
| 20260507071508 | 2 | 230 | 1.6 | 4.8 | 0.00 | 0.00 | 0.00 | 63 | 1014.1 |
| 20260507070012 | 3 | 230 | 1.6 | 3.2 | 0.00 | 0.00 | 0.00 | 63 | 1014.3 |
| 20260507064502 | 3 | 230 | 1.6 | 3.2 | 0.00 | 0.00 | 0.00 | 63 | 1014.5 |
| 20260507063001 | 3 | 230 | 0.0 | 3.2 | 0.00 | 0.00 | 0.00 | 63 | 1014.6 |
| 20260507061600 | 3 | 230 | 0.0 | 4.8 | 0.00 | 0.00 | 0.00 | 63 | 1014.7 |
| 20260507054558 | 3 | 230 | 1.6 | 4.8 | 0.00 | 0.00 | 0.00 | 62 | 1014.7 |
| 20260507053055 | 3 | 230 | 1.6 | 4.8 | 0.00 | 0.00 | 0.00 | 61 | 1014.7 |
| 20260507051554 | 3 | 230 | 1.6 | 4.8 | 0.00 | 0.00 | 0.00 | 60 | 1014.7 |
| 20260507050051 | 3 | 228 | 1.6 | 6.4 | 0.00 | 0.00 | 0.00 | 59 | 1014.8 |
| 20260507044605 | 3 | 228 | 3.2 | 6.4 | 0.00 | 0.00 | 0.00 | 60 | 1014.9 |
| 20260507043102 | 3 | 228 | 3.2 | 6.4 | 0.00 | 0.00 | 0.00 | 60 | 1014.9 |
| 20260507041554 | 3 | 227 | 0.0 | 6.4 | 0.00 | 0.00 | 0.00 | 60 | 1015.0 |
| 20260507040048 | 3 | 225 | 3.2 | 6.4 | 0.00 | 0.00 | 0.00 | 61 | 1015.2 |
| 20260507034551 | 3 | 221 | 1.6 | 4.8 | 0.00 | 0.00 | 0.00 | 61 | 1015.3 |
| 20260507033047 | 2 | 219 | 3.2 | 6.4 | 0.00 | 0.00 | 0.00 | 62 | 1015.3 |
| 20260507031548 | 2 | 215 | 1.6 | 4.8 | 0.00 | 0.00 | 0.00 | 63 | 1015.3 |
| 20260507030046 | 2 | 215 | 1.6 | 4.8 | 0.00 | 0.00 | 0.00 | 63 | 1015.4 |
| 20260507024551 | 3 | 215 | 0.0 | 3.2 | 0.00 | 0.00 | 0.00 | 63 | 1015.4 |
| 20260507023057 | 3 | 215 | 0.0 | 3.2 | 0.00 | 0.00 | 0.00 | 61 | 1015.4 |
| 20260507021545 | 3 | 215 | 0.0 | 3.2 | 0.00 | 0.00 | 0.00 | 59 | 1015.5 |
| 20260507020050 | 4 | 215 | 0.0 | 0.0 | 0.00 | 0.00 | 0.00 | 57 | 1015.5 |
| 20260507014543 | 5 | 215 | 0.0 | 0.0 | 0.00 | 0.00 | 0.00 | 55 | 1015.4 |
| 20260507013042 | 5 | 215 | 1.6 | 4.8 | 0.00 | 0.00 | 0.00 | 54 | 1015.6 |
| 20260507011546 | 5 | 265 | 0.0 | 8.0 | 0.00 | 0.00 | 0.00 | 53 | 1015.6 |